NCAR-RAP Real-Time Weather Data

Output produced by METARs form (08 May 2021  16:46 UTC)
found at http://weather.rap.ucar.edu/surface/
 
KOKC 081552Z 18021G28KT 10SM FEW150 FEW250 24/14 A2977 RMK AO2 PK WND 18028/1552 SLP067 T02390144
KOKC 081452Z 18015G24KT 10SM SCT100 SCT150 21/14 A2980 RMK AO2 SLP079 VIRGA N-E T02060139 50001
KOKC 081352Z 19014KT 10SM BKN140 BKN250 20/14 A2980 RMK AO2 SLP081 T02000139
KOKC 081252Z 18014KT 10SM FEW160 SCT250 19/14 A2981 RMK AO2 SLP082 T01890139
KOKC 081152Z 17010KT 10SM SCT120 BKN250 17/13 A2980 RMK AO2 SLP078 VIRGA N-E T01670133 10200 20167 56004
KOKC 081052Z 18013KT 10SM BKN130 BKN250 18/13 A2980 RMK AO2 SLP078 T01830133
KOKC 080952Z 18015KT 10SM BKN150 BKN250 19/13 A2980 RMK AO2 SLP078 T01890133
KOKC 080852Z 18017KT 10SM FEW080 BKN150 OVC250 19/14 A2981 RMK AO2 SLP081 T01890139 56034
KOKC 080752Z 18017KT 10SM BKN150 OVC250 19/14 A2983 RMK AO2 SLP090 T01940144
KOKC 080652Z 17014KT 10SM SCT070 BKN150 OVC250 19/14 A2985 RMK AO2 SLP096 T01940144
KOKC 080552Z 17009KT 10SM OVC150 19/14 A2991 RMK AO2 SLP117 60000 T01940144 10256 20189 402670117 58005
KOKC 080452Z 28009KT 10SM SCT070 OVC110 20/15 A2998 RMK AO2 RAE03 SLP141 P0000 T02000150
KOKC 080352Z 18005KT 10SM -RA BKN048 BKN090 OVC110 21/14 A2997 RMK AO2 RAB30 PRESRR SLP137 P0000 T02110144
KOKC 080252Z 15008KT 10SM BKN140 OVC170 21/14 A2993 RMK AO2 SLP124 T02110144 53010
KOKC 080152Z 15007KT 10SM BKN160 BKN250 21/14 A2990 RMK AO2 SLP117 T02060139
KOKC 080052Z 16010KT 10SM SCT150 BKN250 24/13 A2987 RMK AO2 SLP106 T02390133
KOKC 072352Z 17014G20KT 10SM FEW150 BKN250 26/13 A2990 RMK AO2 SLP114 T02560133 10267 20233 56025
KOKC 072252Z 17016G24KT 10SM SCT250 27/13 A2991 RMK AO2 PK WND 18026/2157 SLP117 T02670133
KOKC 072152Z 17019G26KT 10SM FEW050 FEW250 26/12 A2993 RMK AO2 PK WND 15028/2120 SLP125 T02610122
KOKC 072052Z 16015G27KT 10SM FEW140 FEW250 26/12 A2997 RMK AO2 PK WND 19027/2043 SLP140 T02560117 58038
KOKC 071952Z 18018G23KT 10SM SCT140 SCT250 25/12 A3002 RMK AO2 SLP157 T02500117
KOKC 071852Z 17016G24KT 10SM SCT120 SCT190 SCT250 24/11 A3004 RMK AO2 PK WND 15026/1804 SLP164 T02440106
KOKC 071752Z 17014KT 10SM SCT110 SCT150 SCT250 24/11 A3009 RMK AO2 SLP180 T02390106 10239 20117 58031
KOKC 071652Z 18019G26KT 10SM SCT100 SCT250 22/08 A3014 RMK AO2 PK WND 16026/1643 SLP196 T02220083
KOKC 071552Z 17015G22KT 10SM FEW100 FEW250 21/07 A3016 RMK AO2 SLP204 T02060067
KOKC 071452Z 14013KT 10SM SCT100 18/06 A3019 RMK AO2 SLP213 T01780056 50001
KOKC 071352Z 14012KT 10SM FEW250 16/05 A3020 RMK AO2 SLP218 T01610050
KOKC 071252Z 15008KT 10SM FEW250 13/06 A3020 RMK AO2 SLP218 T01330056
KOKC 071152Z 13008KT 10SM FEW090 FEW250 12/05 A3018 RMK AO2 SLP214 T01170050 10150 20117 50001
KOKC 071052Z 14008KT 10SM FEW090 12/04 A3019 RMK AO2 SLP214 T01170044
KOKC 070952Z 13008KT 10SM CLR 12/05 A3018 RMK AO2 SLP213 T01170050
KOKC 070852Z 12008KT 10SM CLR 13/05 A3018 RMK AO2 SLP210 T01330050 55005
KOKC 070752Z 11009KT 10SM CLR 13/04 A3018 RMK AO2 SLP210 T01330044
KOKC 070652Z 10008KT 10SM CLR 13/04 A3019 RMK AO2 SLP214 T01330039
KOKC 070552Z 08009KT 10SM CLR 15/04 A3019 RMK AO2 SLP216 T01500044 10228 20144 402440128 58004
KOKC 070452Z 08007KT 10SM CLR 16/06 A3020 RMK AO2 SLP220 T01560061
KOKC 070352Z 05008KT 10SM CLR 17/07 A3021 RMK AO2 SLP223 T01720067
KOKC 070252Z 06007KT 10SM CLR 18/07 A3021 RMK AO2 SLP221 T01830067 53007
KOKC 070152Z 05004KT 10SM CLR 19/06 A3019 RMK AO2 SLP216 T01940061
KOKC 070052Z 36007KT 10SM CLR 22/06 A3018 RMK AO2 SLP213 T02170061
KOKC 062352Z 35008KT 10SM CLR 23/06 A3019 RMK AO2 SLP213 T02280061 10244 20222 56014
KOKC 062252Z 01009KT 10SM FEW075 24/06 A3019 RMK AO2 SLP216 T02390056
KOKC 062152Z 36010KT 10SM FEW075 24/07 A3021 RMK AO2 SLP221 T02390072
KOKC 062052Z 36010KT 10SM FEW075 24/08 A3023 RMK AO2 SLP227 T02390078 56016
KOKC 061952Z 35010KT 10SM FEW130 24/09 A3024 RMK AO2 SLP232 T02390089
KOKC 061852Z 34012KT 10SM FEW150 23/09 A3026 RMK AO2 SLP239 T02330094
KOKC 061752Z 35013KT 10SM FEW150 22/09 A3028 RMK AO2 SLP245 T02220094 10228 20133 58003
KOKC 061652Z 33016KT 10SM SCT150 21/11 A3028 RMK AO2 SLP247 T02110111